sensor_id;sensor_type;location;lat;lon;timestamp;pressure;altitude;pressure_sealevel;temperature;humidity
82160;BME280;71734;50.876;7.372;2023-09-19T00:02:16;98421.00;;;17.02;73.17
82160;BME280;71734;50.876;7.372;2023-09-19T00:04:43;98425.28;;;17.28;72.17
82160;BME280;71734;50.876;7.372;2023-09-19T00:07:09;98414.38;;;17.31;71.31
82160;BME280;71734;50.876;7.372;2023-09-19T00:09:36;98411.16;;;17.26;71.53
82160;BME280;71734;50.876;7.372;2023-09-19T00:12:04;98427.66;;;17.20;71.54
82160;BME280;71734;50.876;7.372;2023-09-19T00:14:31;98433.53;;;17.01;71.86
82160;BME280;71734;50.876;7.372;2023-09-19T00:17:00;98431.38;;;17.06;72.16
82160;BME280;71734;50.876;7.372;2023-09-19T00:19:32;98428.50;;;16.97;72.00
82160;BME280;71734;50.876;7.372;2023-09-19T00:21:59;98425.75;;;16.86;72.09
82160;BME280;71734;50.876;7.372;2023-09-19T00:24:25;98427.00;;;16.93;72.46
82160;BME280;71734;50.876;7.372;2023-09-19T00:26:56;98432.13;;;16.96;71.34
82160;BME280;71734;50.876;7.372;2023-09-19T00:29:25;98437.19;;;16.88;71.93
82160;BME280;71734;50.876;7.372;2023-09-19T00:31:54;98436.97;;;16.91;71.38
82160;BME280;71734;50.876;7.372;2023-09-19T00:34:21;98447.81;;;16.77;71.31
82160;BME280;71734;50.876;7.372;2023-09-19T00:36:50;98438.91;;;16.89;71.42
82160;BME280;71734;50.876;7.372;2023-09-19T00:39:19;98423.41;;;16.81;71.16
82160;BME280;71734;50.876;7.372;2023-09-19T00:41:47;98433.16;;;16.82;71.77
82160;BME280;71734;50.876;7.372;2023-09-19T00:44:14;98451.09;;;16.93;71.67
82160;BME280;71734;50.876;7.372;2023-09-19T00:46:41;98440.84;;;16.87;72.18
82160;BME280;71734;50.876;7.372;2023-09-19T00:49:08;98442.22;;;16.92;70.79
82160;BME280;71734;50.876;7.372;2023-09-19T00:51:38;98450.69;;;16.73;72.06
82160;BME280;71734;50.876;7.372;2023-09-19T00:54:12;98439.53;;;16.92;71.86
82160;BME280;71734;50.876;7.372;2023-09-19T00:56:43;98434.00;;;16.83;71.05
82160;BME280;71734;50.876;7.372;2023-09-19T00:59:10;98436.75;;;16.56;71.84
82160;BME280;71734;50.876;7.372;2023-09-19T01:01:38;98442.25;;;16.54;71.25
82160;BME280;71734;50.876;7.372;2023-09-19T01:04:05;98450.47;;;16.77;70.77
82160;BME280;71734;50.876;7.372;2023-09-19T01:06:33;98454.97;;;16.63;71.75
82160;BME280;71734;50.876;7.372;2023-09-19T01:09:04;98455.84;;;16.77;70.70
82160;BME280;71734;50.876;7.372;2023-09-19T01:11:36;98463.22;;;16.73;69.90
82160;BME280;71734;50.876;7.372;2023-09-19T01:14:12;98456.06;;;16.73;70.97
82160;BME280;71734;50.876;7.372;2023-09-19T01:16:46;98474.47;;;16.65;69.57
82160;BME280;71734;50.876;7.372;2023-09-19T01:19:40;98465.13;;;16.71;70.21
82160;BME280;71734;50.876;7.372;2023-09-19T01:22:16;98465.19;;;16.58;71.63
82160;BME280;71734;50.876;7.372;2023-09-19T01:25:09;98461.50;;;16.59;71.46
82160;BME280;71734;50.876;7.372;2023-09-19T01:27:58;98471.03;;;16.63;70.32
82160;BME280;71734;50.876;7.372;2023-09-19T01:30:39;98476.25;;;16.52;70.98
82160;BME280;71734;50.876;7.372;2023-09-19T01:33:09;98480.22;;;16.59;71.37
82160;BME280;71734;50.876;7.372;2023-09-19T01:35:37;98478.69;;;16.55;70.75
82160;BME280;71734;50.876;7.372;2023-09-19T01:38:04;98482.22;;;16.43;70.48
82160;BME280;71734;50.876;7.372;2023-09-19T01:40:41;98478.28;;;16.36;72.27
82160;BME280;71734;50.876;7.372;2023-09-19T01:43:14;98479.53;;;16.31;71.19
82160;BME280;71734;50.876;7.372;2023-09-19T01:45:49;98485.72;;;16.58;72.11
82160;BME280;71734;50.876;7.372;2023-09-19T01:48:25;98482.34;;;16.29;71.13
82160;BME280;71734;50.876;7.372;2023-09-19T01:51:01;98487.53;;;16.57;71.97
82160;BME280;71734;50.876;7.372;2023-09-19T01:53:33;98483.69;;;16.61;70.84
82160;BME280;71734;50.876;7.372;2023-09-19T01:56:05;98490.75;;;16.62;70.83
82160;BME280;71734;50.876;7.372;2023-09-19T01:58:39;98479.56;;;16.56;71.31
82160;BME280;71734;50.876;7.372;2023-09-19T02:01:11;98496.28;;;16.59;71.37
82160;BME280;71734;50.876;7.372;2023-09-19T02:03:41;98514.06;;;16.60;71.13
82160;BME280;71734;50.876;7.372;2023-09-19T02:06:13;98511.16;;;16.63;71.14
82160;BME280;71734;50.876;7.372;2023-09-19T02:08:41;98509.03;;;16.81;71.28
82160;BME280;71734;50.876;7.372;2023-09-19T02:11:07;98515.34;;;16.93;70.15
82160;BME280;71734;50.876;7.372;2023-09-19T02:13:36;98514.16;;;16.71;69.80
82160;BME280;71734;50.876;7.372;2023-09-19T02:16:04;98510.44;;;16.61;71.57
82160;BME280;71734;50.876;7.372;2023-09-19T02:18:33;98516.31;;;16.66;71.31
82160;BME280;71734;50.876;7.372;2023-09-19T02:21:00;98513.75;;;16.65;70.89
82160;BME280;71734;50.876;7.372;2023-09-19T02:23:27;98525.84;;;16.70;70.88
82160;BME280;71734;50.876;7.372;2023-09-19T02:25:55;98525.16;;;16.54;69.79
82160;BME280;71734;50.876;7.372;2023-09-19T02:28:23;98531.00;;;16.47;71.55
82160;BME280;71734;50.876;7.372;2023-09-19T02:30:49;98536.59;;;16.56;70.98
82160;BME280;71734;50.876;7.372;2023-09-19T02:33:16;98518.09;;;16.53;70.89
82160;BME280;71734;50.876;7.372;2023-09-19T02:35:46;98534.38;;;16.50;71.33
82160;BME280;71734;50.876;7.372;2023-09-19T02:38:13;98535.06;;;16.27;70.98
82160;BME280;71734;50.876;7.372;2023-09-19T02:40:43;98536.34;;;16.21;70.39
82160;BME280;71734;50.876;7.372;2023-09-19T02:43:10;98528.28;;;16.09;69.94
82160;BME280;71734;50.876;7.372;2023-09-19T02:45:36;98526.00;;;16.03;71.07
82160;BME280;71734;50.876;7.372;2023-09-19T02:48:04;98535.16;;;16.13;70.06
82160;BME280;71734;50.876;7.372;2023-09-19T02:50:35;98535.78;;;16.16;70.56
82160;BME280;71734;50.876;7.372;2023-09-19T02:53:03;98538.25;;;16.19;70.73
82160;BME280;71734;50.876;7.372;2023-09-19T02:55:32;98531.56;;;16.00;69.42
82160;BME280;71734;50.876;7.372;2023-09-19T02:57:59;98533.59;;;15.96;69.29
82160;BME280;71734;50.876;7.372;2023-09-19T03:00:25;98542.00;;;15.90;70.96
82160;BME280;71734;50.876;7.372;2023-09-19T03:02:54;98535.09;;;16.00;70.87
82160;BME280;71734;50.876;7.372;2023-09-19T03:05:21;98535.72;;;15.91;70.07
82160;BME280;71734;50.876;7.372;2023-09-19T03:07:48;98540.28;;;16.16;70.44
82160;BME280;71734;50.876;7.372;2023-09-19T03:10:17;98552.59;;;15.92;69.39
82160;BME280;71734;50.876;7.372;2023-09-19T03:12:44;98536.97;;;15.86;70.80
82160;BME280;71734;50.876;7.372;2023-09-19T03:15:10;98536.31;;;15.82;70.83
82160;BME280;71734;50.876;7.372;2023-09-19T03:17:37;98542.47;;;15.70;70.94
82160;BME280;71734;50.876;7.372;2023-09-19T03:20:04;98553.75;;;15.88;69.68
82160;BME280;71734;50.876;7.372;2023-09-19T03:22:33;98552.63;;;15.77;70.86
82160;BME280;71734;50.876;7.372;2023-09-19T03:25:00;98561.44;;;15.65;70.78
82160;BME280;71734;50.876;7.372;2023-09-19T03:30:07;98572.47;;;15.88;69.54
82160;BME280;71734;50.876;7.372;2023-09-19T03:32:34;98573.72;;;15.82;71.27
82160;BME280;71734;50.876;7.372;2023-09-19T03:35:01;98576.88;;;15.89;70.20
82160;BME280;71734;50.876;7.372;2023-09-19T03:37:30;98577.41;;;15.94;69.66
82160;BME280;71734;50.876;7.372;2023-09-19T03:39:57;98578.53;;;16.04;69.68
82160;BME280;71734;50.876;7.372;2023-09-19T03:42:24;98573.06;;;15.78;70.04
82160;BME280;71734;50.876;7.372;2023-09-19T03:44:51;98579.91;;;15.82;71.11
82160;BME280;71734;50.876;7.372;2023-09-19T03:49:53;98579.19;;;15.80;70.39
82160;BME280;71734;50.876;7.372;2023-09-19T03:52:19;98581.63;;;15.57;70.69
82160;BME280;71734;50.876;7.372;2023-09-19T03:54:46;98579.78;;;15.57;71.19
82160;BME280;71734;50.876;7.372;2023-09-19T03:57:12;98582.00;;;15.65;69.50
82160;BME280;71734;50.876;7.372;2023-09-19T03:59:41;98566.44;;;15.57;70.64
82160;BME280;71734;50.876;7.372;2023-09-19T04:02:08;98568.28;;;15.57;70.54
82160;BME280;71734;50.876;7.372;2023-09-19T04:04:38;98567.41;;;15.56;71.24
82160;BME280;71734;50.876;7.372;2023-09-19T04:07:04;98578.09;;;15.56;69.42
82160;BME280;71734;50.876;7.372;2023-09-19T04:09:31;98564.81;;;15.55;71.28
82160;BME280;71734;50.876;7.372;2023-09-19T04:11:57;98568.31;;;15.69;69.99
82160;BME280;71734;50.876;7.372;2023-09-19T04:14:24;98564.13;;;15.65;69.59
82160;BME280;71734;50.876;7.372;2023-09-19T04:16:50;98566.78;;;15.65;70.20
82160;BME280;71734;50.876;7.372;2023-09-19T04:19:18;98563.38;;;15.90;68.90
82160;BME280;71734;50.876;7.372;2023-09-19T04:21:48;98570.88;;;15.98;69.14
82160;BME280;71734;50.876;7.372;2023-09-19T04:24:15;98567.41;;;15.83;69.53
82160;BME280;71734;50.876;7.372;2023-09-19T04:26:44;98578.03;;;15.70;69.22
82160;BME280;71734;50.876;7.372;2023-09-19T04:29:10;98574.53;;;15.97;68.93
82160;BME280;71734;50.876;7.372;2023-09-19T04:31:38;98586.00;;;15.58;70.17
82160;BME280;71734;50.876;7.372;2023-09-19T04:34:08;98588.78;;;15.56;69.44
82160;BME280;71734;50.876;7.372;2023-09-19T04:36:35;98580.75;;;15.42;69.94
82160;BME280;71734;50.876;7.372;2023-09-19T04:39:03;98584.75;;;15.35;70.43
82160;BME280;71734;50.876;7.372;2023-09-19T04:41:32;98588.38;;;15.34;70.84
82160;BME280;71734;50.876;7.372;2023-09-19T04:43:59;98580.66;;;15.01;71.80
82160;BME280;71734;50.876;7.372;2023-09-19T04:46:25;98583.91;;;15.06;71.79
82160;BME280;71734;50.876;7.372;2023-09-19T04:48:52;98586.47;;;15.22;71.25
82160;BME280;71734;50.876;7.372;2023-09-19T04:51:18;98581.53;;;15.30;70.92
82160;BME280;71734;50.876;7.372;2023-09-19T04:53:45;98579.53;;;15.05;71.00
82160;BME280;71734;50.876;7.372;2023-09-19T04:56:14;98590.38;;;15.16;71.65
82160;BME280;71734;50.876;7.372;2023-09-19T04:58:41;98594.50;;;15.22;71.09
82160;BME280;71734;50.876;7.372;2023-09-19T05:01:07;98585.72;;;15.06;70.65
82160;BME280;71734;50.876;7.372;2023-09-19T05:03:36;98597.13;;;14.79;72.85
82160;BME280;71734;50.876;7.372;2023-09-19T05:06:03;98597.13;;;14.65;71.67
82160;BME280;71734;50.876;7.372;2023-09-19T05:08:30;98600.75;;;14.78;72.67
82160;BME280;71734;50.876;7.372;2023-09-19T05:11:01;98592.97;;;14.89;72.14
82160;BME280;71734;50.876;7.372;2023-09-19T05:13:29;98599.59;;;14.68;72.54
82160;BME280;71734;50.876;7.372;2023-09-19T05:15:59;98598.25;;;14.61;73.01
82160;BME280;71734;50.876;7.372;2023-09-19T05:18:26;98603.44;;;14.78;72.22
82160;BME280;71734;50.876;7.372;2023-09-19T05:20:53;98613.34;;;15.05;71.25
82160;BME280;71734;50.876;7.372;2023-09-19T05:23:21;98608.94;;;14.75;72.84
82160;BME280;71734;50.876;7.372;2023-09-19T05:25:48;98617.94;;;15.03;70.73
82160;BME280;71734;50.876;7.372;2023-09-19T05:28:14;98615.47;;;15.00;71.67
82160;BME280;71734;50.876;7.372;2023-09-19T05:30:42;98619.09;;;14.99;71.20
82160;BME280;71734;50.876;7.372;2023-09-19T05:33:11;98619.47;;;15.07;70.75
82160;BME280;71734;50.876;7.372;2023-09-19T05:35:38;98626.34;;;15.11;70.96
82160;BME280;71734;50.876;7.372;2023-09-19T05:38:07;98626.59;;;15.06;70.73
82160;BME280;71734;50.876;7.372;2023-09-19T05:40:35;98640.34;;;15.14;71.16
82160;BME280;71734;50.876;7.372;2023-09-19T05:43:03;98638.50;;;15.01;70.37
82160;BME280;71734;50.876;7.372;2023-09-19T05:45:31;98650.63;;;15.06;70.58
82160;BME280;71734;50.876;7.372;2023-09-19T05:48:08;98651.09;;;14.99;70.70
82160;BME280;71734;50.876;7.372;2023-09-19T05:50:38;98645.75;;;14.99;70.92
82160;BME280;71734;50.876;7.372;2023-09-19T05:53:05;98656.56;;;15.11;70.71
82160;BME280;71734;50.876;7.372;2023-09-19T05:55:34;98652.81;;;15.00;70.21
82160;BME280;71734;50.876;7.372;2023-09-19T05:58:03;98655.31;;;15.03;70.48
82160;BME280;71734;50.876;7.372;2023-09-19T06:00:30;98649.03;;;15.04;70.71
82160;BME280;71734;50.876;7.372;2023-09-19T06:02:59;98664.84;;;15.07;70.53
82160;BME280;71734;50.876;7.372;2023-09-19T06:05:27;98663.69;;;15.25;69.95
82160;BME280;71734;50.876;7.372;2023-09-19T06:07:55;98672.84;;;15.21;70.29
82160;BME280;71734;50.876;7.372;2023-09-19T06:10:25;98677.03;;;15.11;69.66
82160;BME280;71734;50.876;7.372;2023-09-19T06:12:53;98676.53;;;15.04;71.04
82160;BME280;71734;50.876;7.372;2023-09-19T06:15:20;98680.09;;;15.19;69.99
82160;BME280;71734;50.876;7.372;2023-09-19T06:17:48;98684.50;;;15.20;70.07
82160;BME280;71734;50.876;7.372;2023-09-19T06:20:17;98686.69;;;15.27;70.49
82160;BME280;71734;50.876;7.372;2023-09-19T06:22:45;98679.44;;;15.15;69.86
82160;BME280;71734;50.876;7.372;2023-09-19T06:25:13;98686.38;;;15.04;70.45
82160;BME280;71734;50.876;7.372;2023-09-19T06:27:47;98694.78;;;15.12;70.11
82160;BME280;71734;50.876;7.372;2023-09-19T06:30:14;98687.72;;;15.11;69.47
82160;BME280;71734;50.876;7.372;2023-09-19T06:32:40;98692.31;;;15.23;70.22
82160;BME280;71734;50.876;7.372;2023-09-19T06:35:09;98699.34;;;15.10;69.59
82160;BME280;71734;50.876;7.372;2023-09-19T06:37:37;98712.13;;;15.19;70.00
82160;BME280;71734;50.876;7.372;2023-09-19T06:40:07;98705.06;;;15.18;70.32
82160;BME280;71734;50.876;7.372;2023-09-19T06:42:38;98701.81;;;15.13;69.35
82160;BME280;71734;50.876;7.372;2023-09-19T06:45:07;98710.78;;;15.12;69.92
82160;BME280;71734;50.876;7.372;2023-09-19T06:47:33;98718.09;;;15.08;70.22
82160;BME280;71734;50.876;7.372;2023-09-19T06:49:59;98720.09;;;15.05;70.80
82160;BME280;71734;50.876;7.372;2023-09-19T06:52:28;98719.75;;;15.11;70.53
82160;BME280;71734;50.876;7.372;2023-09-19T06:54:55;98719.94;;;15.08;70.01
82160;BME280;71734;50.876;7.372;2023-09-19T06:57:22;98713.22;;;15.01;70.54
82160;BME280;71734;50.876;7.372;2023-09-19T06:59:49;98712.34;;;15.30;69.54
82160;BME280;71734;50.876;7.372;2023-09-19T07:02:16;98723.22;;;15.27;69.46
82160;BME280;71734;50.876;7.372;2023-09-19T07:04:42;98722.25;;;15.28;69.79
82160;BME280;71734;50.876;7.372;2023-09-19T07:07:09;98728.75;;;15.38;68.18
82160;BME280;71734;50.876;7.372;2023-09-19T07:09:35;98719.97;;;15.36;69.35
82160;BME280;71734;50.876;7.372;2023-09-19T07:12:04;98719.13;;;15.35;68.99
82160;BME280;71734;50.876;7.372;2023-09-19T07:14:30;98719.22;;;15.48;69.00
82160;BME280;71734;50.876;7.372;2023-09-19T07:16:57;98724.72;;;15.45;69.59
82160;BME280;71734;50.876;7.372;2023-09-19T07:19:25;98722.50;;;15.53;68.60
82160;BME280;71734;50.876;7.372;2023-09-19T07:21:53;98715.38;;;15.38;69.43
82160;BME280;71734;50.876;7.372;2023-09-19T07:24:20;98712.81;;;15.36;69.32
82160;BME280;71734;50.876;7.372;2023-09-19T07:26:48;98717.75;;;15.28;69.80
82160;BME280;71734;50.876;7.372;2023-09-19T07:29:16;98719.47;;;15.29;68.22
82160;BME280;71734;50.876;7.372;2023-09-19T07:31:42;98724.53;;;15.34;68.81
82160;BME280;71734;50.876;7.372;2023-09-19T07:34:09;98734.38;;;15.48;68.84
82160;BME280;71734;50.876;7.372;2023-09-19T07:36:35;98736.75;;;15.24;68.84
82160;BME280;71734;50.876;7.372;2023-09-19T07:39:03;98734.56;;;15.01;68.08
82160;BME280;71734;50.876;7.372;2023-09-19T07:41:32;98730.41;;;15.11;68.86
82160;BME280;71734;50.876;7.372;2023-09-19T07:44:01;98720.34;;;15.16;68.68
82160;BME280;71734;50.876;7.372;2023-09-19T07:46:28;98722.06;;;15.31;68.87
82160;BME280;71734;50.876;7.372;2023-09-19T07:48:57;98734.47;;;15.32;68.98
82160;BME280;71734;50.876;7.372;2023-09-19T07:51:24;98738.50;;;15.53;68.47
82160;BME280;71734;50.876;7.372;2023-09-19T07:53:52;98736.28;;;15.46;66.99
82160;BME280;71734;50.876;7.372;2023-09-19T07:56:19;98745.53;;;15.40;67.60
82160;BME280;71734;50.876;7.372;2023-09-19T07:58:49;98727.59;;;15.28;68.07
82160;BME280;71734;50.876;7.372;2023-09-19T08:01:15;98738.03;;;15.17;69.03
82160;BME280;71734;50.876;7.372;2023-09-19T08:03:45;98736.16;;;15.19;68.05
82160;BME280;71734;50.876;7.372;2023-09-19T08:06:11;98748.59;;;15.48;68.28
82160;BME280;71734;50.876;7.372;2023-09-19T08:08:39;98738.19;;;15.44;67.29
82160;BME280;71734;50.876;7.372;2023-09-19T08:11:06;98745.69;;;15.67;67.01
82160;BME280;71734;50.876;7.372;2023-09-19T08:13:36;98747.09;;;15.87;67.38
82160;BME280;71734;50.876;7.372;2023-09-19T08:16:06;98742.88;;;16.11;67.38
82160;BME280;71734;50.876;7.372;2023-09-19T08:18:33;98747.56;;;16.21;66.21
82160;BME280;71734;50.876;7.372;2023-09-19T08:21:04;98745.50;;;16.39;66.78
82160;BME280;71734;50.876;7.372;2023-09-19T08:23:33;98739.00;;;16.57;65.29
82160;BME280;71734;50.876;7.372;2023-09-19T08:26:00;98747.56;;;16.48;65.82
82160;BME280;71734;50.876;7.372;2023-09-19T08:28:31;98755.41;;;16.51;65.54
82160;BME280;71734;50.876;7.372;2023-09-19T08:31:01;98747.38;;;16.51;65.98
82160;BME280;71734;50.876;7.372;2023-09-19T08:33:29;98751.34;;;16.72;64.74
82160;BME280;71734;50.876;7.372;2023-09-19T08:35:55;98751.41;;;16.58;65.72
82160;BME280;71734;50.876;7.372;2023-09-19T08:38:23;98753.63;;;16.79;65.87
82160;BME280;71734;50.876;7.372;2023-09-19T08:40:51;98756.66;;;16.87;64.10
82160;BME280;71734;50.876;7.372;2023-09-19T08:43:21;98741.06;;;17.06;64.03
82160;BME280;71734;50.876;7.372;2023-09-19T08:45:49;98744.16;;;17.00;63.29
82160;BME280;71734;50.876;7.372;2023-09-19T08:48:23;98754.28;;;16.82;62.48
82160;BME280;71734;50.876;7.372;2023-09-19T08:50:52;98752.47;;;16.83;64.75
82160;BME280;71734;50.876;7.372;2023-09-19T08:53:27;98752.50;;;16.68;63.12
82160;BME280;71734;50.876;7.372;2023-09-19T08:55:54;98756.03;;;16.96;64.14
82160;BME280;71734;50.876;7.372;2023-09-19T08:58:25;98752.94;;;17.02;63.62
82160;BME280;71734;50.876;7.372;2023-09-19T09:00:54;98745.38;;;17.21;64.10
82160;BME280;71734;50.876;7.372;2023-09-19T09:03:22;98753.06;;;17.13;63.19
82160;BME280;71734;50.876;7.372;2023-09-19T09:05:50;98752.47;;;17.35;62.84
82160;BME280;71734;50.876;7.372;2023-09-19T09:08:18;98753.56;;;16.93;62.79
82160;BME280;71734;50.876;7.372;2023-09-19T09:10:49;98763.38;;;17.19;63.39
82160;BME280;71734;50.876;7.372;2023-09-19T09:13:16;98765.41;;;17.28;64.51
82160;BME280;71734;50.876;7.372;2023-09-19T09:15:43;98760.19;;;17.39;62.93
82160;BME280;71734;50.876;7.372;2023-09-19T09:18:10;98753.81;;;17.80;62.83
82160;BME280;71734;50.876;7.372;2023-09-19T09:20:37;98762.59;;;17.82;61.61
82160;BME280;71734;50.876;7.372;2023-09-19T09:23:03;98759.16;;;17.92;61.46
82160;BME280;71734;50.876;7.372;2023-09-19T09:25:48;98762.50;;;18.45;60.02
82160;BME280;71734;50.876;7.372;2023-09-19T09:28:22;98764.44;;;18.30;58.58
82160;BME280;71734;50.876;7.372;2023-09-19T09:30:49;98769.56;;;18.46;58.62
82160;BME280;71734;50.876;7.372;2023-09-19T09:33:17;98767.84;;;18.58;58.69
82160;BME280;71734;50.876;7.372;2023-09-19T09:35:53;98752.22;;;18.99;57.10
82160;BME280;71734;50.876;7.372;2023-09-19T09:38:23;98767.03;;;19.16;57.39
82160;BME280;71734;50.876;7.372;2023-09-19T09:40:55;98764.03;;;19.31;56.96
82160;BME280;71734;50.876;7.372;2023-09-19T09:43:31;98760.34;;;18.50;57.21
82160;BME280;71734;50.876;7.372;2023-09-19T09:46:12;98755.31;;;18.45;56.36
82160;BME280;71734;50.876;7.372;2023-09-19T09:49:00;98751.94;;;18.91;54.56
82160;BME280;71734;50.876;7.372;2023-09-19T09:51:59;98744.03;;;19.35;54.22
82160;BME280;71734;50.876;7.372;2023-09-19T09:54:30;98749.50;;;18.75;55.71
82160;BME280;71734;50.876;7.372;2023-09-19T09:57:04;98744.69;;;18.91;55.84
82160;BME280;71734;50.876;7.372;2023-09-19T09:59:46;98744.31;;;19.20;55.14
82160;BME280;71734;50.876;7.372;2023-09-19T10:02:15;98744.06;;;18.88;54.53
82160;BME280;71734;50.876;7.372;2023-09-19T10:04:45;98737.59;;;19.49;54.83
82160;BME280;71734;50.876;7.372;2023-09-19T10:07:27;98743.53;;;19.30;53.70
82160;BME280;71734;50.876;7.372;2023-09-19T10:09:57;98743.94;;;19.13;55.35
82160;BME280;71734;50.876;7.372;2023-09-19T10:12:31;98742.25;;;18.65;56.00
82160;BME280;71734;50.876;7.372;2023-09-19T10:15:00;98738.25;;;18.94;56.73
82160;BME280;71734;50.876;7.372;2023-09-19T10:17:29;98736.59;;;18.80;53.55
82160;BME280;71734;50.876;7.372;2023-09-19T10:19:57;98730.00;;;19.08;54.68
82160;BME280;71734;50.876;7.372;2023-09-19T10:22:24;98728.75;;;19.01;55.25
82160;BME280;71734;50.876;7.372;2023-09-19T10:24:53;98736.63;;;19.15;54.84
82160;BME280;71734;50.876;7.372;2023-09-19T10:27:21;98728.97;;;18.87;54.79
82160;BME280;71734;50.876;7.372;2023-09-19T10:29:49;98746.84;;;18.26;54.08
82160;BME280;71734;50.876;7.372;2023-09-19T10:32:16;98735.34;;;18.73;55.79
82160;BME280;71734;50.876;7.372;2023-09-19T10:34:45;98730.22;;;18.94;54.48
82160;BME280;71734;50.876;7.372;2023-09-19T10:37:13;98728.44;;;19.17;54.10
82160;BME280;71734;50.876;7.372;2023-09-19T10:39:45;98726.31;;;18.98;53.73
82160;BME280;71734;50.876;7.372;2023-09-19T10:42:16;98720.78;;;19.91;54.62
82160;BME280;71734;50.876;7.372;2023-09-19T10:44:45;98722.16;;;19.40;53.01
82160;BME280;71734;50.876;7.372;2023-09-19T10:47:16;98724.06;;;19.51;52.27
82160;BME280;71734;50.876;7.372;2023-09-19T10:49:44;98717.31;;;19.10;53.37
82160;BME280;71734;50.876;7.372;2023-09-19T10:52:13;98721.50;;;19.25;52.62
82160;BME280;71734;50.876;7.372;2023-09-19T10:54:46;98722.63;;;19.80;53.27
82160;BME280;71734;50.876;7.372;2023-09-19T10:57:19;98723.09;;;20.18;52.90
82160;BME280;71734;50.876;7.372;2023-09-19T11:00:01;98731.44;;;20.04;51.63
82160;BME280;71734;50.876;7.372;2023-09-19T11:03:19;98735.81;;;20.38;52.43
82160;BME280;71734;50.876;7.372;2023-09-19T11:06:09;98731.91;;;19.76;49.83
82160;BME280;71734;50.876;7.372;2023-09-19T11:08:55;98720.88;;;20.01;50.35
82160;BME280;71734;50.876;7.372;2023-09-19T11:11:42;98717.72;;;19.96;51.03
82160;BME280;71734;50.876;7.372;2023-09-19T11:14:14;98713.66;;;20.24;50.43
82160;BME280;71734;50.876;7.372;2023-09-19T11:20:23;98722.03;;;19.41;51.92
82160;BME280;71734;50.876;7.372;2023-09-19T11:23:20;98723.16;;;19.04;54.48
82160;BME280;71734;50.876;7.372;2023-09-19T11:25:52;98713.34;;;19.27;53.74
82160;BME280;71734;50.876;7.372;2023-09-19T11:28:34;98707.69;;;19.65;53.03
82160;BME280;71734;50.876;7.372;2023-09-19T11:34:38;98709.78;;;19.15;53.86
82160;BME280;71734;50.876;7.372;2023-09-19T11:40:11;98711.53;;;19.38;52.88
82160;BME280;71734;50.876;7.372;2023-09-19T11:42:42;98705.63;;;19.79;52.96
82160;BME280;71734;50.876;7.372;2023-09-19T11:48:12;98718.94;;;19.59;52.16
82160;BME280;71734;50.876;7.372;2023-09-19T11:50:39;98721.38;;;19.51;53.36
82160;BME280;71734;50.876;7.372;2023-09-19T11:53:09;98716.38;;;19.22;53.28
82160;BME280;71734;50.876;7.372;2023-09-19T11:55:38;98722.47;;;19.70;53.80
82160;BME280;71734;50.876;7.372;2023-09-19T11:58:10;98728.53;;;19.04;52.78
82160;BME280;71734;50.876;7.372;2023-09-19T12:00:39;98732.34;;;18.78;52.93
82160;BME280;71734;50.876;7.372;2023-09-19T12:03:11;98714.59;;;18.51;53.67
82160;BME280;71734;50.876;7.372;2023-09-19T12:05:39;98725.78;;;18.45;54.71
82160;BME280;71734;50.876;7.372;2023-09-19T12:08:07;98729.56;;;18.67;54.16
82160;BME280;71734;50.876;7.372;2023-09-19T12:10:45;98723.59;;;19.33;52.67
82160;BME280;71734;50.876;7.372;2023-09-19T12:13:16;98720.31;;;19.40;50.85
82160;BME280;71734;50.876;7.372;2023-09-19T12:15:41;98731.28;;;20.06;50.94
82160;BME280;71734;50.876;7.372;2023-09-19T12:18:26;98726.72;;;20.62;50.68
82160;BME280;71734;50.876;7.372;2023-09-19T12:20:52;98727.84;;;20.48;50.08
82160;BME280;71734;50.876;7.372;2023-09-19T12:23:21;98729.94;;;20.22;51.25
82160;BME280;71734;50.876;7.372;2023-09-19T12:25:49;98719.94;;;19.80;51.05
82160;BME280;71734;50.876;7.372;2023-09-19T12:28:19;98711.34;;;19.97;52.00
82160;BME280;71734;50.876;7.372;2023-09-19T12:30:47;98720.66;;;20.04;51.44
82160;BME280;71734;50.876;7.372;2023-09-19T12:33:16;98719.53;;;19.73;51.12
82160;BME280;71734;50.876;7.372;2023-09-19T12:35:44;98719.06;;;20.13;50.73
82160;BME280;71734;50.876;7.372;2023-09-19T12:38:10;98712.69;;;20.79;47.45
82160;BME280;71734;50.876;7.372;2023-09-19T12:40:39;98716.25;;;21.53;46.68
82160;BME280;71734;50.876;7.372;2023-09-19T12:43:09;98711.47;;;21.04;46.24
82160;BME280;71734;50.876;7.372;2023-09-19T12:45:42;98717.91;;;21.65;46.50
82160;BME280;71734;50.876;7.372;2023-09-19T12:48:20;98708.47;;;22.01;45.60
82160;BME280;71734;50.876;7.372;2023-09-19T12:51:03;98700.56;;;21.58;47.39
82160;BME280;71734;50.876;7.372;2023-09-19T12:53:32;98698.59;;;21.60;46.66
82160;BME280;71734;50.876;7.372;2023-09-19T12:55:59;98693.72;;;22.05;46.98
82160;BME280;71734;50.876;7.372;2023-09-19T12:58:28;98689.13;;;21.96;46.23
82160;BME280;71734;50.876;7.372;2023-09-19T13:00:55;98702.19;;;21.70;46.42
82160;BME280;71734;50.876;7.372;2023-09-19T13:03:25;98691.88;;;21.33;47.03
82160;BME280;71734;50.876;7.372;2023-09-19T13:05:54;98690.09;;;20.70;47.15
82160;BME280;71734;50.876;7.372;2023-09-19T13:08:27;98689.28;;;20.91;47.38
82160;BME280;71734;50.876;7.372;2023-09-19T13:11:15;98690.47;;;20.66;46.99
82160;BME280;71734;50.876;7.372;2023-09-19T13:13:46;98699.72;;;21.05;47.76
82160;BME280;71734;50.876;7.372;2023-09-19T13:16:14;98685.09;;;20.55;47.63
82160;BME280;71734;50.876;7.372;2023-09-19T13:18:46;98691.19;;;20.68;45.58
82160;BME280;71734;50.876;7.372;2023-09-19T13:21:16;98687.13;;;21.05;45.85
82160;BME280;71734;50.876;7.372;2023-09-19T13:23:49;98678.28;;;21.03;45.19
82160;BME280;71734;50.876;7.372;2023-09-19T13:26:17;98661.72;;;20.87;46.46
82160;BME280;71734;50.876;7.372;2023-09-19T13:28:44;98670.41;;;21.11;46.02
82160;BME280;71734;50.876;7.372;2023-09-19T13:31:13;98661.06;;;20.74;46.33
82160;BME280;71734;50.876;7.372;2023-09-19T13:33:43;98664.53;;;20.65;46.80